Terminal Aerodrome Forecast
Issued by NWS Boston, MA

Home | Current Version | Previous Version | Text Only | Print | Product List | Glossary On
Versions: 1 2 3 4 5 6 7 8 9 10 11 12 13 14 15 16 17 18 19 20 21 22 23 24 25 26 27 28 29 30 31 32 33 34 35 36 37 38 39 40 41 42
000
FTUS41 KBOX 302026 AAA
TAFBDL
TAF AMD
KBDL 302026Z 3020/3124 19008KT P6SM SCT050
     FM311000 20006KT 6SM BR BKN025
     FM311200 20006KT 3SM BR BKN025
     FM311400 20008KT P6SM BKN020
     FM311800 21009KT P6SM BKN045
     FM312200 20007KT 5SM -SHRA OVC090=

USA.gov is the U.S. government's official web portal to all federal, state and local government web resources and services.